sensor_id;sensor_type;location;lat;lon;timestamp;temperature;humidity
13488;DHT22;6816;48.506;9.050;2022-07-06T00:02:00;17.40;75.80
13488;DHT22;6816;48.506;9.050;2022-07-06T00:05:01;17.50;75.90
13488;DHT22;6816;48.506;9.050;2022-07-06T00:08:01;17.40;76.20
13488;DHT22;6816;48.506;9.050;2022-07-06T00:11:02;17.50;76.40
13488;DHT22;6816;48.506;9.050;2022-07-06T00:14:03;17.50;76.40
13488;DHT22;6816;48.506;9.050;2022-07-06T00:17:04;17.50;76.60
13488;DHT22;6816;48.506;9.050;2022-07-06T00:20:05;17.50;76.50
13488;DHT22;6816;48.506;9.050;2022-07-06T00:23:06;17.50;76.70
13488;DHT22;6816;48.506;9.050;2022-07-06T00:26:07;17.50;76.70
13488;DHT22;6816;48.506;9.050;2022-07-06T00:29:07;17.50;76.60
13488;DHT22;6816;48.506;9.050;2022-07-06T00:32:08;17.50;76.50
13488;DHT22;6816;48.506;9.050;2022-07-06T00:35:08;17.50;77.20
13488;DHT22;6816;48.506;9.050;2022-07-06T00:38:09;17.50;76.50
13488;DHT22;6816;48.506;9.050;2022-07-06T00:41:10;17.40;76.50
13488;DHT22;6816;48.506;9.050;2022-07-06T00:44:12;17.40;76.50
13488;DHT22;6816;48.506;9.050;2022-07-06T00:47:12;17.40;76.60
13488;DHT22;6816;48.506;9.050;2022-07-06T00:50:15;17.40;76.60
13488;DHT22;6816;48.506;9.050;2022-07-06T00:53:18;17.30;77.40
13488;DHT22;6816;48.506;9.050;2022-07-06T00:56:18;17.30;76.70
13488;DHT22;6816;48.506;9.050;2022-07-06T00:59:19;17.20;76.80
13488;DHT22;6816;48.506;9.050;2022-07-06T01:02:20;17.20;77.00
13488;DHT22;6816;48.506;9.050;2022-07-06T01:05:23;17.10;77.20
13488;DHT22;6816;48.506;9.050;2022-07-06T01:08:23;17.10;77.50
13488;DHT22;6816;48.506;9.050;2022-07-06T01:11:25;17.00;77.60
13488;DHT22;6816;48.506;9.050;2022-07-06T01:14:25;17.00;77.80
13488;DHT22;6816;48.506;9.050;2022-07-06T01:17:26;16.90;77.90
13488;DHT22;6816;48.506;9.050;2022-07-06T01:20:29;16.90;78.00
13488;DHT22;6816;48.506;9.050;2022-07-06T01:23:29;16.80;78.20
13488;DHT22;6816;48.506;9.050;2022-07-06T01:26:30;16.80;78.10
13488;DHT22;6816;48.506;9.050;2022-07-06T01:29:32;16.70;78.00
13488;DHT22;6816;48.506;9.050;2022-07-06T01:32:32;16.60;78.10
13488;DHT22;6816;48.506;9.050;2022-07-06T01:35:35;16.60;78.40
13488;DHT22;6816;48.506;9.050;2022-07-06T01:38:49;16.60;78.80
13488;DHT22;6816;48.506;9.050;2022-07-06T01:41:49;16.50;79.50
13488;DHT22;6816;48.506;9.050;2022-07-06T01:44:50;16.50;78.90
13488;DHT22;6816;48.506;9.050;2022-07-06T01:47:51;16.40;79.10
13488;DHT22;6816;48.506;9.050;2022-07-06T01:50:51;16.40;79.20
13488;DHT22;6816;48.506;9.050;2022-07-06T01:53:52;16.40;79.40
13488;DHT22;6816;48.506;9.050;2022-07-06T01:56:53;16.30;79.40
13488;DHT22;6816;48.506;9.050;2022-07-06T01:59:53;16.30;79.70
13488;DHT22;6816;48.506;9.050;2022-07-06T02:02:54;16.20;79.70
13488;DHT22;6816;48.506;9.050;2022-07-06T02:05:54;16.20;79.60
13488;DHT22;6816;48.506;9.050;2022-07-06T02:08:55;16.20;79.80
13488;DHT22;6816;48.506;9.050;2022-07-06T02:11:56;16.10;80.00
13488;DHT22;6816;48.506;9.050;2022-07-06T02:14:57;16.10;80.20
13488;DHT22;6816;48.506;9.050;2022-07-06T02:17:58;16.10;80.30
13488;DHT22;6816;48.506;9.050;2022-07-06T02:20:58;16.00;80.40
13488;DHT22;6816;48.506;9.050;2022-07-06T02:23:59;16.00;80.50
13488;DHT22;6816;48.506;9.050;2022-07-06T02:27:01;16.00;80.70
13488;DHT22;6816;48.506;9.050;2022-07-06T02:30:02;15.90;80.70
13488;DHT22;6816;48.506;9.050;2022-07-06T02:33:03;15.90;80.90
13488;DHT22;6816;48.506;9.050;2022-07-06T02:36:03;15.90;80.90
13488;DHT22;6816;48.506;9.050;2022-07-06T02:39:04;15.90;80.90
13488;DHT22;6816;48.506;9.050;2022-07-06T02:42:05;15.80;81.00
13488;DHT22;6816;48.506;9.050;2022-07-06T02:45:06;15.80;81.20
13488;DHT22;6816;48.506;9.050;2022-07-06T02:48:07;15.80;81.30
13488;DHT22;6816;48.506;9.050;2022-07-06T02:51:07;15.70;81.40
13488;DHT22;6816;48.506;9.050;2022-07-06T02:54:08;15.70;81.50
13488;DHT22;6816;48.506;9.050;2022-07-06T02:57:09;15.70;81.80
13488;DHT22;6816;48.506;9.050;2022-07-06T03:00:10;15.70;81.80
13488;DHT22;6816;48.506;9.050;2022-07-06T03:03:11;15.60;81.70
13488;DHT22;6816;48.506;9.050;2022-07-06T03:06:12;15.60;81.80
13488;DHT22;6816;48.506;9.050;2022-07-06T03:09:12;15.60;81.90
13488;DHT22;6816;48.506;9.050;2022-07-06T03:12:13;15.60;82.00
13488;DHT22;6816;48.506;9.050;2022-07-06T03:15:29;15.50;82.10
13488;DHT22;6816;48.506;9.050;2022-07-06T03:18:29;15.50;82.80
13488;DHT22;6816;48.506;9.050;2022-07-06T03:21:30;15.50;82.00
13488;DHT22;6816;48.506;9.050;2022-07-06T03:24:31;15.40;82.10
13488;DHT22;6816;48.506;9.050;2022-07-06T03:27:32;15.40;82.30
13488;DHT22;6816;48.506;9.050;2022-07-06T03:30:34;15.40;82.30
13488;DHT22;6816;48.506;9.050;2022-07-06T03:33:34;15.30;83.30
13488;DHT22;6816;48.506;9.050;2022-07-06T03:36:35;15.30;82.70
13488;DHT22;6816;48.506;9.050;2022-07-06T03:39:36;15.30;82.80
13488;DHT22;6816;48.506;9.050;2022-07-06T03:42:37;15.30;82.80
13488;DHT22;6816;48.506;9.050;2022-07-06T03:45:37;15.30;82.80
13488;DHT22;6816;48.506;9.050;2022-07-06T03:48:38;15.20;82.80
13488;DHT22;6816;48.506;9.050;2022-07-06T03:51:39;15.20;82.90
13488;DHT22;6816;48.506;9.050;2022-07-06T03:54:40;15.20;82.90
13488;DHT22;6816;48.506;9.050;2022-07-06T03:57:41;15.20;83.00
13488;DHT22;6816;48.506;9.050;2022-07-06T04:00:41;15.10;83.20
13488;DHT22;6816;48.506;9.050;2022-07-06T04:03:42;15.10;83.40
13488;DHT22;6816;48.506;9.050;2022-07-06T04:06:43;15.10;83.60
13488;DHT22;6816;48.506;9.050;2022-07-06T04:09:43;15.10;83.80
13488;DHT22;6816;48.506;9.050;2022-07-06T04:12:44;15.10;84.00
13488;DHT22;6816;48.506;9.050;2022-07-06T04:15:45;15.10;84.10
13488;DHT22;6816;48.506;9.050;2022-07-06T04:18:46;15.10;84.30
13488;DHT22;6816;48.506;9.050;2022-07-06T04:21:47;15.00;84.30
13488;DHT22;6816;48.506;9.050;2022-07-06T04:24:47;15.10;84.50
13488;DHT22;6816;48.506;9.050;2022-07-06T04:27:48;15.10;84.50
13488;DHT22;6816;48.506;9.050;2022-07-06T04:30:48;15.10;84.70
13488;DHT22;6816;48.506;9.050;2022-07-06T04:33:49;15.10;84.80
13488;DHT22;6816;48.506;9.050;2022-07-06T04:36:50;15.10;84.80
13488;DHT22;6816;48.506;9.050;2022-07-06T04:39:50;15.10;84.80
13488;DHT22;6816;48.506;9.050;2022-07-06T04:42:51;15.10;84.90
13488;DHT22;6816;48.506;9.050;2022-07-06T04:45:52;15.20;85.00
13488;DHT22;6816;48.506;9.050;2022-07-06T04:48:52;15.20;85.10
13488;DHT22;6816;48.506;9.050;2022-07-06T04:51:53;15.20;85.20
13488;DHT22;6816;48.506;9.050;2022-07-06T04:55:18;15.20;85.30
13488;DHT22;6816;48.506;9.050;2022-07-06T04:58:34;15.30;86.70
13488;DHT22;6816;48.506;9.050;2022-07-06T05:01:35;15.40;85.60
13488;DHT22;6816;48.506;9.050;2022-07-06T05:04:36;15.40;85.70
13488;DHT22;6816;48.506;9.050;2022-07-06T05:07:37;15.50;86.00
13488;DHT22;6816;48.506;9.050;2022-07-06T05:10:40;15.60;86.30
13488;DHT22;6816;48.506;9.050;2022-07-06T05:13:40;15.70;86.70
13488;DHT22;6816;48.506;9.050;2022-07-06T05:16:41;15.80;87.00
13488;DHT22;6816;48.506;9.050;2022-07-06T05:19:41;15.90;87.30
13488;DHT22;6816;48.506;9.050;2022-07-06T05:22:42;16.10;87.40
13488;DHT22;6816;48.506;9.050;2022-07-06T05:25:43;16.30;88.20
13488;DHT22;6816;48.506;9.050;2022-07-06T05:28:43;16.50;87.50
13488;DHT22;6816;48.506;9.050;2022-07-06T05:31:44;16.70;87.50
13488;DHT22;6816;48.506;9.050;2022-07-06T05:34:44;17.00;87.50
13488;DHT22;6816;48.506;9.050;2022-07-06T05:37:45;17.20;87.20
13488;DHT22;6816;48.506;9.050;2022-07-06T05:40:46;17.40;87.00
13488;DHT22;6816;48.506;9.050;2022-07-06T05:43:47;17.70;86.90
13488;DHT22;6816;48.506;9.050;2022-07-06T05:46:47;17.90;86.70
13488;DHT22;6816;48.506;9.050;2022-07-06T05:49:48;18.10;86.40
13488;DHT22;6816;48.506;9.050;2022-07-06T05:53:07;18.40;86.40
13488;DHT22;6816;48.506;9.050;2022-07-06T05:56:08;18.60;85.70
13488;DHT22;6816;48.506;9.050;2022-07-06T05:59:09;18.90;85.50
13488;DHT22;6816;48.506;9.050;2022-07-06T06:02:09;19.00;85.10
13488;DHT22;6816;48.506;9.050;2022-07-06T06:05:11;19.20;84.50
13488;DHT22;6816;48.506;9.050;2022-07-06T06:08:11;19.40;84.10
13488;DHT22;6816;48.506;9.050;2022-07-06T06:11:12;19.60;85.20
13488;DHT22;6816;48.506;9.050;2022-07-06T06:14:13;19.80;83.80
13488;DHT22;6816;48.506;9.050;2022-07-06T06:17:13;20.00;83.40
13488;DHT22;6816;48.506;9.050;2022-07-06T06:20:15;20.10;82.90
13488;DHT22;6816;48.506;9.050;2022-07-06T06:23:15;20.30;82.60
13488;DHT22;6816;48.506;9.050;2022-07-06T06:26:16;20.50;82.70
13488;DHT22;6816;48.506;9.050;2022-07-06T06:29:17;20.70;82.50
13488;DHT22;6816;48.506;9.050;2022-07-06T06:32:18;20.80;81.40
13488;DHT22;6816;48.506;9.050;2022-07-06T06:35:19;21.00;81.10
13488;DHT22;6816;48.506;9.050;2022-07-06T06:38:22;21.10;80.40
13488;DHT22;6816;48.506;9.050;2022-07-06T06:41:54;21.20;79.80
13488;DHT22;6816;48.506;9.050;2022-07-06T06:44:55;21.40;77.90
13488;DHT22;6816;48.506;9.050;2022-07-06T06:47:56;21.50;78.80
13488;DHT22;6816;48.506;9.050;2022-07-06T06:50:57;21.60;78.80
13488;DHT22;6816;48.506;9.050;2022-07-06T06:53:57;21.70;78.90
13488;DHT22;6816;48.506;9.050;2022-07-06T06:56:58;21.90;78.10
13488;DHT22;6816;48.506;9.050;2022-07-06T06:59:59;21.90;77.10
13488;DHT22;6816;48.506;9.050;2022-07-06T07:02:59;22.10;77.40
13488;DHT22;6816;48.506;9.050;2022-07-06T07:06:00;22.10;77.30
13488;DHT22;6816;48.506;9.050;2022-07-06T07:09:01;22.30;77.40
13488;DHT22;6816;48.506;9.050;2022-07-06T07:12:02;22.40;77.30
13488;DHT22;6816;48.506;9.050;2022-07-06T07:15:03;22.50;76.20
13488;DHT22;6816;48.506;9.050;2022-07-06T07:18:03;22.60;75.50
13488;DHT22;6816;48.506;9.050;2022-07-06T07:21:04;22.60;75.70
13488;DHT22;6816;48.506;9.050;2022-07-06T07:24:05;22.70;74.20
13488;DHT22;6816;48.506;9.050;2022-07-06T07:27:07;22.80;74.10
13488;DHT22;6816;48.506;9.050;2022-07-06T07:30:09;22.90;74.10
13488;DHT22;6816;48.506;9.050;2022-07-06T07:33:09;23.00;73.50
13488;DHT22;6816;48.506;9.050;2022-07-06T07:36:10;23.10;73.20
13488;DHT22;6816;48.506;9.050;2022-07-06T07:39:11;23.10;73.70
13488;DHT22;6816;48.506;9.050;2022-07-06T07:42:11;23.20;72.80
13488;DHT22;6816;48.506;9.050;2022-07-06T07:45:12;23.30;72.80
13488;DHT22;6816;48.506;9.050;2022-07-06T07:48:12;23.40;73.70
13488;DHT22;6816;48.506;9.050;2022-07-06T07:51:13;23.40;73.10
13488;DHT22;6816;48.506;9.050;2022-07-06T07:54:14;23.50;73.10
13488;DHT22;6816;48.506;9.050;2022-07-06T07:57:14;23.60;72.30
13488;DHT22;6816;48.506;9.050;2022-07-06T08:00:15;23.60;71.70
13488;DHT22;6816;48.506;9.050;2022-07-06T08:03:16;23.70;71.50
13488;DHT22;6816;48.506;9.050;2022-07-06T08:06:16;23.80;70.90
13488;DHT22;6816;48.506;9.050;2022-07-06T08:09:17;23.90;71.50
13488;DHT22;6816;48.506;9.050;2022-07-06T08:12:18;24.00;71.50
13488;DHT22;6816;48.506;9.050;2022-07-06T08:15:19;24.00;70.70
13488;DHT22;6816;48.506;9.050;2022-07-06T08:18:19;24.20;70.70
13488;DHT22;6816;48.506;9.050;2022-07-06T08:21:20;24.30;70.80
13488;DHT22;6816;48.506;9.050;2022-07-06T08:24:21;24.30;69.70
13488;DHT22;6816;48.506;9.050;2022-07-06T08:27:21;24.50;70.50
13488;DHT22;6816;48.506;9.050;2022-07-06T08:30:22;24.60;69.30
13488;DHT22;6816;48.506;9.050;2022-07-06T08:33:23;24.70;69.90
13488;DHT22;6816;48.506;9.050;2022-07-06T08:36:23;24.80;69.80
13488;DHT22;6816;48.506;9.050;2022-07-06T08:39:24;25.00;69.20
13488;DHT22;6816;48.506;9.050;2022-07-06T08:42:33;25.10;68.40
13488;DHT22;6816;48.506;9.050;2022-07-06T08:45:35;25.30;67.30
13488;DHT22;6816;48.506;9.050;2022-07-06T08:48:37;25.50;68.90
13488;DHT22;6816;48.506;9.050;2022-07-06T08:51:38;25.60;67.50
13488;DHT22;6816;48.506;9.050;2022-07-06T08:54:40;25.70;65.70
13488;DHT22;6816;48.506;9.050;2022-07-06T08:57:41;25.80;65.40
13488;DHT22;6816;48.506;9.050;2022-07-06T09:00:42;25.90;64.80
13488;DHT22;6816;48.506;9.050;2022-07-06T09:03:45;25.90;64.70
13488;DHT22;6816;48.506;9.050;2022-07-06T09:06:47;26.00;63.40
13488;DHT22;6816;48.506;9.050;2022-07-06T09:09:49;26.10;63.50
13488;DHT22;6816;48.506;9.050;2022-07-06T09:12:52;26.20;64.00
13488;DHT22;6816;48.506;9.050;2022-07-06T09:15:53;26.20;63.40
13488;DHT22;6816;48.506;9.050;2022-07-06T09:18:54;26.20;62.80
13488;DHT22;6816;48.506;9.050;2022-07-06T09:21:55;26.20;61.50
13488;DHT22;6816;48.506;9.050;2022-07-06T09:25:08;26.20;61.70
13488;DHT22;6816;48.506;9.050;2022-07-06T09:28:09;26.20;61.60
13488;DHT22;6816;48.506;9.050;2022-07-06T09:31:12;26.10;62.50
13488;DHT22;6816;48.506;9.050;2022-07-06T09:34:12;26.20;62.00
13488;DHT22;6816;48.506;9.050;2022-07-06T09:37:14;26.20;63.50
13488;DHT22;6816;48.506;9.050;2022-07-06T09:40:18;26.30;62.00
13488;DHT22;6816;48.506;9.050;2022-07-06T09:43:21;26.30;61.70
13488;DHT22;6816;48.506;9.050;2022-07-06T09:46:22;26.40;62.20
13488;DHT22;6816;48.506;9.050;2022-07-06T09:49:24;26.40;61.70
13488;DHT22;6816;48.506;9.050;2022-07-06T09:52:25;26.50;61.60
13488;DHT22;6816;48.506;9.050;2022-07-06T09:55:25;26.50;60.60
13488;DHT22;6816;48.506;9.050;2022-07-06T09:58:26;26.50;60.30
13488;DHT22;6816;48.506;9.050;2022-07-06T10:01:27;26.50;60.10
13488;DHT22;6816;48.506;9.050;2022-07-06T10:04:30;26.50;59.70
13488;DHT22;6816;48.506;9.050;2022-07-06T10:07:31;26.60;59.70
13488;DHT22;6816;48.506;9.050;2022-07-06T10:10:32;26.60;59.90
13488;DHT22;6816;48.506;9.050;2022-07-06T10:13:34;26.60;59.70
13488;DHT22;6816;48.506;9.050;2022-07-06T10:16:37;26.70;59.80
13488;DHT22;6816;48.506;9.050;2022-07-06T10:19:39;26.70;59.80
13488;DHT22;6816;48.506;9.050;2022-07-06T10:22:40;26.70;59.30
13488;DHT22;6816;48.506;9.050;2022-07-06T10:25:41;26.70;58.70
13488;DHT22;6816;48.506;9.050;2022-07-06T10:28:42;26.70;58.60
13488;DHT22;6816;48.506;9.050;2022-07-06T10:31:45;26.70;58.90
13488;DHT22;6816;48.506;9.050;2022-07-06T10:34:47;26.70;58.40
13488;DHT22;6816;48.506;9.050;2022-07-06T10:38:04;26.70;58.20
13488;DHT22;6816;48.506;9.050;2022-07-06T10:41:07;26.70;57.00
13488;DHT22;6816;48.506;9.050;2022-07-06T10:44:15;26.70;59.30
13488;DHT22;6816;48.506;9.050;2022-07-06T10:47:19;26.80;58.20
13488;DHT22;6816;48.506;9.050;2022-07-06T10:50:34;26.80;58.80
13488;DHT22;6816;48.506;9.050;2022-07-06T10:53:37;26.90;57.70
13488;DHT22;6816;48.506;9.050;2022-07-06T10:56:49;26.90;58.40
13488;DHT22;6816;48.506;9.050;2022-07-06T11:00:02;26.80;57.50
13488;DHT22;6816;48.506;9.050;2022-07-06T11:06:45;26.70;56.10
13488;DHT22;6816;48.506;9.050;2022-07-06T11:09:57;26.70;57.50
13488;DHT22;6816;48.506;9.050;2022-07-06T11:13:01;26.70;58.10
13488;DHT22;6816;48.506;9.050;2022-07-06T11:16:02;26.80;57.30
13488;DHT22;6816;48.506;9.050;2022-07-06T11:19:15;26.90;57.70
13488;DHT22;6816;48.506;9.050;2022-07-06T11:22:17;26.90;58.20
13488;DHT22;6816;48.506;9.050;2022-07-06T11:25:19;27.00;57.30
13488;DHT22;6816;48.506;9.050;2022-07-06T11:28:19;27.00;56.80
13488;DHT22;6816;48.506;9.050;2022-07-06T11:31:20;27.00;58.20
13488;DHT22;6816;48.506;9.050;2022-07-06T11:34:26;27.10;58.20
13488;DHT22;6816;48.506;9.050;2022-07-06T11:37:27;27.10;57.40
13488;DHT22;6816;48.506;9.050;2022-07-06T11:40:27;27.10;57.60
13488;DHT22;6816;48.506;9.050;2022-07-06T11:43:30;27.00;57.50
13488;DHT22;6816;48.506;9.050;2022-07-06T11:46:32;27.00;56.80
13488;DHT22;6816;48.506;9.050;2022-07-06T11:49:35;26.90;57.00
13488;DHT22;6816;48.506;9.050;2022-07-06T11:52:36;26.90;56.40
13488;DHT22;6816;48.506;9.050;2022-07-06T11:55:37;26.80;56.60
13488;DHT22;6816;48.506;9.050;2022-07-06T11:58:39;26.80;56.90
13488;DHT22;6816;48.506;9.050;2022-07-06T12:01:40;26.90;56.80
13488;DHT22;6816;48.506;9.050;2022-07-06T12:04:45;26.90;56.30
13488;DHT22;6816;48.506;9.050;2022-07-06T12:07:46;27.00;57.00
13488;DHT22;6816;48.506;9.050;2022-07-06T12:10:46;27.00;56.80
13488;DHT22;6816;48.506;9.050;2022-07-06T12:13:52;27.10;56.70
13488;DHT22;6816;48.506;9.050;2022-07-06T12:16:53;27.10;56.20
13488;DHT22;6816;48.506;9.050;2022-07-06T12:19:54;27.20;56.00
13488;DHT22;6816;48.506;9.050;2022-07-06T12:23:12;27.20;55.50
13488;DHT22;6816;48.506;9.050;2022-07-06T12:26:14;27.20;54.40
13488;DHT22;6816;48.506;9.050;2022-07-06T12:29:16;27.20;55.30
13488;DHT22;6816;48.506;9.050;2022-07-06T12:32:19;27.20;55.30
13488;DHT22;6816;48.506;9.050;2022-07-06T12:35:22;27.20;54.90
13488;DHT22;6816;48.506;9.050;2022-07-06T12:38:27;27.10;54.70
13488;DHT22;6816;48.506;9.050;2022-07-06T12:41:34;27.10;55.40
13488;DHT22;6816;48.506;9.050;2022-07-06T12:44:46;27.10;55.80
13488;DHT22;6816;48.506;9.050;2022-07-06T12:48:01;27.10;55.40
13488;DHT22;6816;48.506;9.050;2022-07-06T12:51:02;26.90;55.40
13488;DHT22;6816;48.506;9.050;2022-07-06T12:54:13;26.90;55.60
13488;DHT22;6816;48.506;9.050;2022-07-06T12:57:21;26.90;55.60
13488;DHT22;6816;48.506;9.050;2022-07-06T13:00:24;26.80;55.60
13488;DHT22;6816;48.506;9.050;2022-07-06T13:03:25;26.80;55.90
13488;DHT22;6816;48.506;9.050;2022-07-06T13:06:33;26.70;55.80
13488;DHT22;6816;48.506;9.050;2022-07-06T13:09:34;26.60;56.00
13488;DHT22;6816;48.506;9.050;2022-07-06T13:12:35;26.60;55.80
13488;DHT22;6816;48.506;9.050;2022-07-06T13:15:37;26.60;56.10
13488;DHT22;6816;48.506;9.050;2022-07-06T13:18:37;26.60;56.20
13488;DHT22;6816;48.506;9.050;2022-07-06T13:21:38;26.60;56.50
13488;DHT22;6816;48.506;9.050;2022-07-06T13:24:39;26.70;56.50
13488;DHT22;6816;48.506;9.050;2022-07-06T13:27:40;26.80;56.60
13488;DHT22;6816;48.506;9.050;2022-07-06T13:30:40;26.80;55.90
13488;DHT22;6816;48.506;9.050;2022-07-06T13:33:50;26.80;56.10
13488;DHT22;6816;48.506;9.050;2022-07-06T13:36:53;26.80;56.50
13488;DHT22;6816;48.506;9.050;2022-07-06T13:39:57;26.80;56.70
13488;DHT22;6816;48.506;9.050;2022-07-06T13:42:58;26.80;56.70
13488;DHT22;6816;48.506;9.050;2022-07-06T13:45:58;26.80;56.60
13488;DHT22;6816;48.506;9.050;2022-07-06T13:48:59;26.80;55.90
13488;DHT22;6816;48.506;9.050;2022-07-06T13:51:59;26.80;55.80
13488;DHT22;6816;48.506;9.050;2022-07-06T13:55:04;26.80;55.80
13488;DHT22;6816;48.506;9.050;2022-07-06T13:58:06;26.80;55.70
13488;DHT22;6816;48.506;9.050;2022-07-06T14:01:07;26.80;56.20
13488;DHT22;6816;48.506;9.050;2022-07-06T14:04:08;26.90;56.10
13488;DHT22;6816;48.506;9.050;2022-07-06T14:07:08;27.00;55.70
13488;DHT22;6816;48.506;9.050;2022-07-06T14:10:09;27.10;55.60
13488;DHT22;6816;48.506;9.050;2022-07-06T14:13:09;27.20;56.30
13488;DHT22;6816;48.506;9.050;2022-07-06T14:16:10;27.40;56.00
13488;DHT22;6816;48.506;9.050;2022-07-06T14:19:11;27.50;55.90
13488;DHT22;6816;48.506;9.050;2022-07-06T14:22:12;27.60;55.90
13488;DHT22;6816;48.506;9.050;2022-07-06T14:25:12;27.70;55.90
13488;DHT22;6816;48.506;9.050;2022-07-06T14:28:13;27.80;55.30
13488;DHT22;6816;48.506;9.050;2022-07-06T14:31:15;27.80;54.90
13488;DHT22;6816;48.506;9.050;2022-07-06T14:34:16;27.80;55.00
13488;DHT22;6816;48.506;9.050;2022-07-06T14:37:17;27.90;54.90
13488;DHT22;6816;48.506;9.050;2022-07-06T14:40:17;27.90;54.90
13488;DHT22;6816;48.506;9.050;2022-07-06T14:43:18;28.00;54.70
13488;DHT22;6816;48.506;9.050;2022-07-06T14:46:19;28.10;54.10
13488;DHT22;6816;48.506;9.050;2022-07-06T14:49:19;28.10;53.60
13488;DHT22;6816;48.506;9.050;2022-07-06T14:52:20;28.10;53.50
13488;DHT22;6816;48.506;9.050;2022-07-06T14:55:21;28.00;52.80
13488;DHT22;6816;48.506;9.050;2022-07-06T14:58:22;27.90;53.30
13488;DHT22;6816;48.506;9.050;2022-07-06T15:01:23;27.80;53.30
13488;DHT22;6816;48.506;9.050;2022-07-06T15:04:24;27.80;54.00
13488;DHT22;6816;48.506;9.050;2022-07-06T15:07:24;27.80;53.60
13488;DHT22;6816;48.506;9.050;2022-07-06T15:10:25;27.70;53.20
13488;DHT22;6816;48.506;9.050;2022-07-06T15:13:26;27.70;52.90
13488;DHT22;6816;48.506;9.050;2022-07-06T15:16:26;27.70;53.40
13488;DHT22;6816;48.506;9.050;2022-07-06T15:19:27;27.70;53.10
13488;DHT22;6816;48.506;9.050;2022-07-06T15:22:28;27.80;53.10
13488;DHT22;6816;48.506;9.050;2022-07-06T15:25:29;27.90;53.20
13488;DHT22;6816;48.506;9.050;2022-07-06T15:28:30;28.00;52.60
13488;DHT22;6816;48.506;9.050;2022-07-06T15:31:30;28.00;52.50
13488;DHT22;6816;48.506;9.050;2022-07-06T15:34:32;28.00;52.30
13488;DHT22;6816;48.506;9.050;2022-07-06T15:37:34;28.00;52.30
13488;DHT22;6816;48.506;9.050;2022-07-06T15:40:34;27.90;52.20
13488;DHT22;6816;48.506;9.050;2022-07-06T15:43:39;27.90;52.00
13488;DHT22;6816;48.506;9.050;2022-07-06T15:46:39;27.90;52.00
13488;DHT22;6816;48.506;9.050;2022-07-06T15:49:40;28.00;52.20
13488;DHT22;6816;48.506;9.050;2022-07-06T15:52:41;28.00;51.80
13488;DHT22;6816;48.506;9.050;2022-07-06T15:55:42;28.10;51.90
13488;DHT22;6816;48.506;9.050;2022-07-06T15:58:43;28.20;51.70
13488;DHT22;6816;48.506;9.050;2022-07-06T16:01:44;28.20;51.90
13488;DHT22;6816;48.506;9.050;2022-07-06T16:04:45;28.20;51.90
13488;DHT22;6816;48.506;9.050;2022-07-06T16:07:45;28.20;51.20
13488;DHT22;6816;48.506;9.050;2022-07-06T16:10:47;28.20;50.70
13488;DHT22;6816;48.506;9.050;2022-07-06T16:13:47;28.20;50.60
13488;DHT22;6816;48.506;9.050;2022-07-06T16:16:48;28.10;50.50
13488;DHT22;6816;48.506;9.050;2022-07-06T16:19:49;28.10;50.30
13488;DHT22;6816;48.506;9.050;2022-07-06T16:22:49;28.00;50.20
13488;DHT22;6816;48.506;9.050;2022-07-06T16:25:50;27.80;50.80
13488;DHT22;6816;48.506;9.050;2022-07-06T16:28:52;27.70;50.30
13488;DHT22;6816;48.506;9.050;2022-07-06T16:31:53;27.50;50.30
13488;DHT22;6816;48.506;9.050;2022-07-06T16:34:53;27.30;50.50
13488;DHT22;6816;48.506;9.050;2022-07-06T16:37:54;27.10;50.70
13488;DHT22;6816;48.506;9.050;2022-07-06T16:40:55;27.00;50.80
13488;DHT22;6816;48.506;9.050;2022-07-06T16:43:56;26.80;50.90
13488;DHT22;6816;48.506;9.050;2022-07-06T16:46:56;26.70;50.80
13488;DHT22;6816;48.506;9.050;2022-07-06T16:49:57;26.60;50.70
13488;DHT22;6816;48.506;9.050;2022-07-06T16:52:58;26.40;50.60
13488;DHT22;6816;48.506;9.050;2022-07-06T16:55:59;26.30;50.60
13488;DHT22;6816;48.506;9.050;2022-07-06T16:59:00;26.30;50.80
13488;DHT22;6816;48.506;9.050;2022-07-06T17:02:01;26.20;50.90
13488;DHT22;6816;48.506;9.050;2022-07-06T17:05:02;26.10;51.30
13488;DHT22;6816;48.506;9.050;2022-07-06T17:08:03;26.00;51.10
13488;DHT22;6816;48.506;9.050;2022-07-06T17:11:03;26.00;50.90
13488;DHT22;6816;48.506;9.050;2022-07-06T17:14:04;26.00;51.30
13488;DHT22;6816;48.506;9.050;2022-07-06T17:17:05;25.90;51.30
13488;DHT22;6816;48.506;9.050;2022-07-06T17:20:06;25.90;51.20
13488;DHT22;6816;48.506;9.050;2022-07-06T17:23:07;25.80;51.60
13488;DHT22;6816;48.506;9.050;2022-07-06T17:26:08;25.80;51.30
13488;DHT22;6816;48.506;9.050;2022-07-06T17:29:08;25.80;51.10
13488;DHT22;6816;48.506;9.050;2022-07-06T17:32:12;25.70;51.00
13488;DHT22;6816;48.506;9.050;2022-07-06T17:35:14;25.60;50.80
13488;DHT22;6816;48.506;9.050;2022-07-06T17:38:14;25.60;50.70
13488;DHT22;6816;48.506;9.050;2022-07-06T17:41:16;25.50;50.80
13488;DHT22;6816;48.506;9.050;2022-07-06T17:44:17;25.40;50.50
13488;DHT22;6816;48.506;9.050;2022-07-06T17:47:17;25.40;50.50
13488;DHT22;6816;48.506;9.050;2022-07-06T17:50:19;25.30;50.50
13488;DHT22;6816;48.506;9.050;2022-07-06T17:53:19;25.20;50.50
13488;DHT22;6816;48.506;9.050;2022-07-06T17:56:20;25.20;51.30
13488;DHT22;6816;48.506;9.050;2022-07-06T17:59:21;25.10;50.70
13488;DHT22;6816;48.506;9.050;2022-07-06T18:02:21;25.10;50.80
13488;DHT22;6816;48.506;9.050;2022-07-06T18:05:22;25.00;50.40
13488;DHT22;6816;48.506;9.050;2022-07-06T18:08:23;25.00;50.20
13488;DHT22;6816;48.506;9.050;2022-07-06T18:11:24;24.90;50.50
13488;DHT22;6816;48.506;9.050;2022-07-06T18:14:25;24.80;50.60
13488;DHT22;6816;48.506;9.050;2022-07-06T18:17:25;24.80;50.50
13488;DHT22;6816;48.506;9.050;2022-07-06T18:20:26;24.70;50.40
13488;DHT22;6816;48.506;9.050;2022-07-06T18:23:27;24.70;50.60
13488;DHT22;6816;48.506;9.050;2022-07-06T18:26:27;24.70;50.60
13488;DHT22;6816;48.506;9.050;2022-07-06T18:29:28;24.70;50.60
13488;DHT22;6816;48.506;9.050;2022-07-06T18:32:29;24.60;50.90
13488;DHT22;6816;48.506;9.050;2022-07-06T18:35:30;24.60;51.00
13488;DHT22;6816;48.506;9.050;2022-07-06T18:38:30;24.60;50.70
13488;DHT22;6816;48.506;9.050;2022-07-06T18:41:31;24.60;51.00
13488;DHT22;6816;48.506;9.050;2022-07-06T18:44:32;24.50;50.70
13488;DHT22;6816;48.506;9.050;2022-07-06T18:47:33;24.50;51.00
13488;DHT22;6816;48.506;9.050;2022-07-06T18:50:34;24.40;51.30
13488;DHT22;6816;48.506;9.050;2022-07-06T18:53:35;24.30;51.00
13488;DHT22;6816;48.506;9.050;2022-07-06T18:56:36;24.30;50.80
13488;DHT22;6816;48.506;9.050;2022-07-06T18:59:36;24.20;51.10
13488;DHT22;6816;48.506;9.050;2022-07-06T19:02:37;24.20;51.40
13488;DHT22;6816;48.506;9.050;2022-07-06T19:05:38;24.10;51.80
13488;DHT22;6816;48.506;9.050;2022-07-06T19:08:39;24.10;52.00
13488;DHT22;6816;48.506;9.050;2022-07-06T19:11:39;24.00;51.60
13488;DHT22;6816;48.506;9.050;2022-07-06T19:14:40;23.90;51.60
13488;DHT22;6816;48.506;9.050;2022-07-06T19:17:41;23.90;51.10
13488;DHT22;6816;48.506;9.050;2022-07-06T19:20:42;23.80;50.80
13488;DHT22;6816;48.506;9.050;2022-07-06T19:23:45;23.70;50.70
13488;DHT22;6816;48.506;9.050;2022-07-06T19:26:45;23.60;50.50
13488;DHT22;6816;48.506;9.050;2022-07-06T19:29:46;23.50;50.60